Latest Weather Observations for Rowley Shoals

IDW60801

Issued at 4:05 pm WST Saturday 22 November 2014 (issued every 30 minutes, with the page automatically refreshed every 10 minutes)

About weather observations | Map of weather stations | Latest weather observations for WA | Other Formats
Station Details ID: 200713 Name: ROWLEY SHOALS Lat: -17.52 Lon: 118.95 Height: 0.0 m
Data from the previous 72 hours. | See also: Recent months for locations in Western Australia
Date/Time
WST
Temp
°C
App
Temp
°C
Dew
Point
Rel
Hum
%
Delta-T
°C
Wind Press
QNH
hPa
Press
MSL
hPa
Rain
since 9 am
mm
Dir
 
Spd
km/h
Gust
km/h
Spd
kts
Gust
kts
22/04:00pm - - - - - SW 22 28 12 15 1008.5 - -
22/03:30pm - - - - - SW 26 28 14 15 1008.5 - -
22/03:00pm - - - - - SW 28 32 15 17 1008.8 1008.6 -
22/02:30pm - - - - - SW 24 30 13 16 1009.0 - -
22/02:00pm - - - - - SW 24 26 13 14 1009.2 1009.0 -
22/01:30pm - - - - - SW 24 26 13 14 1009.4 - -
22/01:00pm - - - - - SW 26 30 14 16 1009.6 1009.4 -
22/12:30pm - - - - - SW 26 30 14 16 1009.9 - -
22/12:00pm - - - - - SW 22 28 12 15 1010.2 1010.0 -
22/11:30am - - - - - SW 26 32 14 17 1010.5 - -
22/11:00am - - - - - SW 26 30 14 16 1010.6 1010.5 -
22/10:30am - - - - - WSW 24 30 13 16 1010.7 - -
22/10:00am - - - - - WSW 26 30 14 16 1010.9 1010.7 -
22/09:30am - - - - - WSW 26 30 14 16 1011.0 - -
22/09:00am - - - - - WSW 26 30 14 16 1011.3 1011.1 -
22/08:30am - - - - - SW 26 30 14 16 1011.1 - -
22/08:00am - - - - - WSW 26 30 14 16 1010.9 1010.9 -
22/07:30am - - - - - WSW 26 30 14 16 1010.6 - -
22/07:00am - - - - - WSW 28 32 15 17 1010.1 1010.1 -
22/06:30am - - - - - WSW 26 30 14 16 1009.8 - -
22/06:00am - - - - - WSW 26 30 14 16 1009.4 1009.4 -
22/05:30am - - - - - WSW 28 32 15 17 1009.0 - -
22/05:00am - - - - - WSW 26 28 14 15 1009.0 1008.9 -
22/04:30am - - - - - W 24 30 13 16 1009.0 - -
22/04:00am - - - - - W 24 28 13 15 1008.9 1008.8 -
22/03:30am - - - - - WSW 26 30 14 16 1008.7 - -
22/03:00am - - - - - WSW 24 30 13 16 1008.6 1008.5 -
22/02:30am - - - - - WSW 24 28 13 15 1008.5 - -
22/02:00am - - - - - WSW 22 26 12 14 1008.5 1008.4 -
22/01:30am - - - - - WSW 24 26 13 14 1008.5 - -
22/01:00am - - - - - WSW 24 28 13 15 1008.4 1008.3 -
22/12:30am - - - - - WSW 24 28 13 15 1008.7 - -
22/12:00am - - - - - WSW 24 28 13 15 1009.0 1008.8 -
 
Date/Time
WST
Temp
°C
App
Temp
°C
Dew
Point
Rel
Hum
%
Delta-T
°C
Wind Press
QNH
hPa
Press
MSL
hPa
Rain
since 9 am
mm
Dir
 
Spd
km/h
Gust
km/h
Spd
kts
Gust
kts
21/11:30pm - - - - - WSW 20 22 11 12 1009.4 - -
21/11:00pm - - - - - WSW 19 20 10 11 1009.7 1009.5 -
21/10:30pm - - - - - WSW 19 20 10 11 1009.7 - -
21/10:00pm - - - - - WSW 20 22 11 12 1010.0 1009.8 -
21/09:30pm - - - - - WSW 19 20 10 11 1010.0 - -
21/09:00pm - - - - - WSW 20 24 11 13 1009.9 1009.8 -
21/08:30pm - - - - - WSW 22 24 12 13 1009.8 - -
21/08:00pm - - - - - WSW 20 20 11 11 1009.6 1009.6 -
21/07:30pm - - - - - WSW 20 22 11 12 1009.4 - -
21/07:00pm - - - - - WSW 22 24 12 13 1009.0 1009.0 -
21/06:30pm - - - - - WSW 20 22 11 12 1008.7 - -
21/06:00pm - - - - - WSW 19 22 10 12 1008.6 1008.5 -
21/05:30pm - - - - - WSW 19 22 10 12 1008.5 - -
21/05:00pm - - - - - WSW 20 22 11 12 1008.1 1008.1 -
21/04:30pm - - - - - SW 20 24 11 13 1008.2 - -
21/04:00pm - - - - - SW 20 24 11 13 1008.2 1007.9 -
21/03:30pm - - - - - SW 22 24 12 13 1008.4 - -
21/03:00pm - - - - - SW 20 24 11 13 1008.8 1008.6 -
21/02:30pm - - - - - SW 20 26 11 14 1009.0 - -
21/02:00pm - - - - - SW 20 24 11 13 1009.1 1009.0 -
21/01:30pm - - - - - SW 22 24 12 13 1009.3 - -
21/01:00pm - - - - - SW 24 28 13 15 1009.4 1009.2 -
21/12:30pm - - - - - SW 24 28 13 15 1009.8 - -
21/12:00pm - - - - - SW 22 26 12 14 1010.1 1009.9 -
21/11:30am - - - - - SW 24 28 13 15 1010.3 - -
21/11:00am - - - - - SW 20 20 11 11 1011.0 1010.7 -
21/10:30am - - - - - SW 19 22 10 12 1011.3 - -
21/10:00am - - - - - SW 20 22 11 12 1011.4 1011.3 -
21/09:30am - - - - - SW 22 26 12 14 1011.5 - -
21/09:00am - - - - - SW 22 32 12 17 1011.3 1011.3 -
21/08:30am - - - - - SW 22 24 12 13 1011.5 - -
21/08:00am - - - - - SW 24 28 13 15 1011.1 1011.2 -
21/07:30am - - - - - SW 26 30 14 16 1010.9 - -
21/07:00am - - - - - SW 24 28 13 15 1010.8 1010.7 -
21/06:30am - - - - - SW 26 32 14 17 1010.2 - -
21/06:00am - - - - - SW 28 30 15 16 1009.9 1009.9 -
21/05:30am - - - - - SW 26 28 14 15 1009.7 - -
21/05:00am - - - - - WSW 26 32 14 17 1009.4 1009.3 -
21/04:30am - - - - - WSW 26 30 14 16 1009.2 - -
21/04:00am - - - - - WSW 26 30 14 16 1009.0 1009.0 -
21/03:30am - - - - - W 24 28 13 15 1008.8 - -
21/03:00am - - - - - W 26 28 14 15 1008.8 1008.7 -
21/02:30am - - - - - W 22 26 12 14 1008.7 - -
21/02:00am - - - - - W 22 24 12 13 1008.9 1008.7 -
21/01:30am - - - - - W 22 26 12 14 1008.9 - -
21/01:00am - - - - - W 20 22 11 12 1009.3 1009.1 -
21/12:30am - - - - - W 19 20 10 11 1009.5 - -
21/12:00am - - - - - W 17 20 9 11 1009.8 1009.6 -
 
Date/Time
WST
Temp
°C
App
Temp
°C
Dew
Point
Rel
Hum
%
Delta-T
°C
Wind Press
QNH
hPa
Press
MSL
hPa
Rain
since 9 am
mm
Dir
 
Spd
km/h
Gust
km/h
Spd
kts
Gust
kts
20/11:30pm - - - - - W 17 19 9 10 1010.0 - -
20/11:00pm - - - - - W 15 17 8 9 1010.4 1010.1 -
20/10:30pm - - - - - W 15 17 8 9 1010.6 - -
20/10:00pm - - - - - W 13 17 7 9 1010.7 1010.6 -
20/09:30pm - - - - - W 15 17 8 9 1010.7 - -
20/09:00pm - - - - - W 15 15 8 8 1010.6 1010.6 -
20/08:30pm - - - - - WSW 13 15 7 8 1010.5 - -
20/08:00pm - - - - - WSW 13 15 7 8 1010.3 1010.3 -
20/07:30pm - - - - - WSW 11 13 6 7 1010.1 - -
20/07:00pm - - - - - SW 13 15 7 8 1009.7 1009.7 -
20/06:30pm - - - - - SW 11 13 6 7 1009.4 - -
20/06:00pm - - - - - SW 13 15 7 8 1009.3 1009.3 -
20/05:30pm - - - - - SW 15 17 8 9 1009.2 - -
20/05:00pm - - - - - SW 15 20 8 11 1009.1 1009.1 -
20/04:30pm - - - - - SW 17 20 9 11 1009.0 - -
20/04:00pm - - - - - SW 17 - 9 - - 1008.9 -
20/03:30pm - - - - - SW 17 20 9 11 1009.1 - -
20/03:00pm - - - - - SW 19 20 10 11 1009.2 1009.0 -
20/02:30pm - - - - - SW 15 17 8 9 1009.3 - -
20/02:00pm - - - - - SW 15 17 8 9 1009.6 1009.4 -
20/01:30pm - - - - - SW 15 17 8 9 1009.8 - -
20/01:00pm - - - - - SW 15 20 8 11 1010.1 1009.9 -
20/12:30pm - - - - - WSW 17 19 9 10 1010.5 - -
20/12:00pm - - - - - SW 19 20 10 11 1010.8 1010.6 -
20/11:30am - - - - - SW 17 20 9 11 1010.9 - -
20/11:00am - - - - - SW 17 20 9 11 1011.2 1011.1 -
20/10:30am - - - - - SW 19 20 10 11 1011.3 - -
20/10:00am - - - - - SW 17 22 9 12 1011.6 1011.4 -
20/09:30am - - - - - SW 20 22 11 12 1011.7 - -
20/09:00am - - - - - WSW 19 20 10 11 1011.9 1011.8 -
20/08:30am - - - - - WSW 17 20 9 11 1012.0 - -
20/08:00am - - - - - SW 19 20 10 11 1011.8 1011.8 -
20/07:30am - - - - - SW 17 20 9 11 1011.5 - -
20/07:00am - - - - - SW 17 20 9 11 1011.3 1011.3 -
20/06:30am - - - - - SW 19 20 10 11 1011.1 - -
20/06:00am - - - - - SW 19 20 10 11 1010.7 1010.8 -
20/05:30am - - - - - SW 19 20 10 11 1010.4 - -
20/05:00am - - - - - SW 19 20 10 11 1010.1 1010.1 -
20/04:30am - - - - - SW 19 20 10 11 1009.9 - -
20/04:00am - - - - - SW 19 22 10 12 1009.7 1009.7 -
20/03:30am - - - - - WSW 17 19 9 10 1009.6 - -
20/03:00am - - - - - SW 17 20 9 11 1009.5 1009.5 -
20/02:30am - - - - - SW 17 20 9 11 1009.6 - -
20/02:00am - - - - - SW 19 20 10 11 1009.9 1009.7 -
20/01:30am - - - - - SW 20 22 11 12 1010.0 - -
20/01:00am - - - - - SW 19 20 10 11 1010.3 1010.1 -
20/12:30am - - - - - SW 19 20 10 11 1010.5 - -
20/12:00am - - - - - SW 15 17 8 9 1010.9 1010.7 -
 
Date/Time
WST
Temp
°C
App
Temp
°C
Dew
Point
Rel
Hum
%
Delta-T
°C
Wind Press
QNH
hPa
Press
MSL
hPa
Rain
since 9 am
mm
Dir
 
Spd
km/h
Gust
km/h
Spd
kts
Gust
kts
19/11:30pm - - - - - SW 19 22 10 12 1011.1 - -
19/11:00pm - - - - - SW 19 22 10 12 1011.3 1011.1 -
19/10:30pm - - - - - SW 17 20 9 11 1011.5 - -
19/10:00pm - - - - - SW 15 17 8 9 1011.4 1011.3 -
19/09:30pm - - - - - SW 17 19 9 10 1011.4 - -
19/09:00pm - - - - - SW 17 19 9 10 1011.2 1011.2 -
19/08:30pm - - - - - SW 15 17 8 9 1011.1 - -
19/08:00pm - - - - - SSW 17 20 9 11 1011.1 1011.1 -
19/07:30pm - - - - - SSW 19 22 10 12 1011.0 - -
19/07:00pm - - - - - SSW 20 24 11 13 1010.9 1010.8 -
19/06:30pm - - - - - SSW 20 26 11 14 1010.5 - -
19/06:00pm - - - - - SSW 22 24 12 13 1010.3 1010.3 -
19/05:30pm - - - - - SSW 20 26 11 14 1010.4 - -
19/05:00pm - - - - - SSW 20 22 11 12 1010.5 1010.4 -
19/04:30pm - - - - - SSW 20 24 11 13 1010.3 - -

Other Formats:

Comma delimited format used in spreadsheet applications
http://www.bom.gov.au/fwo/IDW60801/IDW60801.94207.axf

JavaScript Object Notation format (JSON) in row-major order
http://www.bom.gov.au/fwo/IDW60801/IDW60801.94207.json